Praia, Cape Verde
Current Conditions -  °F | °C
As of 2:00 AM on Saturday 20 Dec 2014 (Local Time) from GVNP Reporting Station
Clear Clear  
Wind Chill: 21°   Ceiling: Unl
Heat Index: 21°   Visibility: 4mi
Dew Point: 20°   Wind: 15mph
Humidity: 94%   Direction: 40°NE
Pressure: 30.03"   Gusts: NA
Location:  14.93°N, 23.54°W
Report Text: GVNP 200300Z 04013KT 6000 NSC 21/20 Q1017 NOSIG
Loading
Personal Weather Stations






























Interactive Weather Map New forecast layout! Learn more

10-Day Weather Forecast

Advertisements
Track Severe Weather on mobile